sensor_id;sensor_type;location;lat;lon;timestamp;P1;durP1;ratioP1;P2;durP2;ratioP2
13720;SDS011;6932;51.438;5.470;2023-05-07T00:11:05;13.13;;;8.90;;
13720;SDS011;6932;51.438;5.470;2023-05-07T00:13:31;13.37;;;8.93;;
13720;SDS011;6932;51.438;5.470;2023-05-07T00:16:00;11.47;;;8.07;;
13720;SDS011;6932;51.438;5.470;2023-05-07T00:18:30;11.90;;;8.40;;
13720;SDS011;6932;51.438;5.470;2023-05-07T00:20:56;11.40;;;8.27;;
13720;SDS011;6932;51.438;5.470;2023-05-07T00:23:22;11.80;;;7.40;;
13720;SDS011;6932;51.438;5.470;2023-05-07T00:25:48;10.77;;;7.57;;
13720;SDS011;6932;51.438;5.470;2023-05-07T00:28:14;10.77;;;7.70;;
13720;SDS011;6932;51.438;5.470;2023-05-07T00:30:39;11.10;;;8.07;;
13720;SDS011;6932;51.438;5.470;2023-05-07T00:33:05;10.87;;;7.83;;
13720;SDS011;6932;51.438;5.470;2023-05-07T00:35:31;11.60;;;7.80;;
13720;SDS011;6932;51.438;5.470;2023-05-07T00:37:57;10.40;;;7.43;;
13720;SDS011;6932;51.438;5.470;2023-05-07T00:40:23;10.03;;;7.50;;
13720;SDS011;6932;51.438;5.470;2023-05-07T00:42:48;9.50;;;7.20;;
13720;SDS011;6932;51.438;5.470;2023-05-07T00:45:14;11.87;;;7.60;;
13720;SDS011;6932;51.438;5.470;2023-05-07T00:47:41;11.37;;;7.67;;
13720;SDS011;6932;51.438;5.470;2023-05-07T00:50:08;13.10;;;8.07;;
13720;SDS011;6932;51.438;5.470;2023-05-07T00:52:37;11.43;;;7.97;;
13720;SDS011;6932;51.438;5.470;2023-05-07T00:55:04;10.80;;;7.80;;
13720;SDS011;6932;51.438;5.470;2023-05-07T00:57:36;11.67;;;8.57;;
13720;SDS011;6932;51.438;5.470;2023-05-07T01:00:05;12.20;;;9.63;;
13720;SDS011;6932;51.438;5.470;2023-05-07T01:02:37;12.27;;;9.03;;
13720;SDS011;6932;51.438;5.470;2023-05-07T01:05:07;12.37;;;8.67;;
13720;SDS011;6932;51.438;5.470;2023-05-07T01:07:38;13.90;;;10.27;;
13720;SDS011;6932;51.438;5.470;2023-05-07T01:10:06;12.43;;;9.23;;
13720;SDS011;6932;51.438;5.470;2023-05-07T01:12:34;11.53;;;8.67;;
13720;SDS011;6932;51.438;5.470;2023-05-07T01:15:02;11.73;;;8.50;;
13720;SDS011;6932;51.438;5.470;2023-05-07T01:17:34;12.13;;;8.90;;
13720;SDS011;6932;51.438;5.470;2023-05-07T01:20:01;12.07;;;7.73;;
13720;SDS011;6932;51.438;5.470;2023-05-07T01:22:30;9.63;;;7.50;;
13720;SDS011;6932;51.438;5.470;2023-05-07T01:25:02;12.10;;;8.17;;
13720;SDS011;6932;51.438;5.470;2023-05-07T01:27:30;11.13;;;8.30;;
13720;SDS011;6932;51.438;5.470;2023-05-07T01:29:56;10.20;;;7.63;;
13720;SDS011;6932;51.438;5.470;2023-05-07T01:32:24;11.07;;;8.40;;
13720;SDS011;6932;51.438;5.470;2023-05-07T01:35:18;10.70;;;8.10;;
13720;SDS011;6932;51.438;5.470;2023-05-07T01:37:49;11.73;;;8.90;;
13720;SDS011;6932;51.438;5.470;2023-05-07T01:40:16;12.10;;;8.73;;
13720;SDS011;6932;51.438;5.470;2023-05-07T01:42:45;12.77;;;8.60;;
13720;SDS011;6932;51.438;5.470;2023-05-07T01:45:13;11.37;;;8.07;;
13720;SDS011;6932;51.438;5.470;2023-05-07T01:47:39;11.57;;;8.53;;
13720;SDS011;6932;51.438;5.470;2023-05-07T01:50:06;12.00;;;8.60;;
13720;SDS011;6932;51.438;5.470;2023-05-07T01:52:34;12.77;;;8.77;;
13720;SDS011;6932;51.438;5.470;2023-05-07T01:55:00;12.97;;;8.73;;
13720;SDS011;6932;51.438;5.470;2023-05-07T01:57:25;11.67;;;8.80;;
13720;SDS011;6932;51.438;5.470;2023-05-07T01:59:51;11.60;;;9.07;;
13720;SDS011;6932;51.438;5.470;2023-05-07T02:02:17;11.30;;;9.10;;
13720;SDS011;6932;51.438;5.470;2023-05-07T02:04:43;12.47;;;9.47;;
13720;SDS011;6932;51.438;5.470;2023-05-07T02:07:08;11.37;;;9.43;;
13720;SDS011;6932;51.438;5.470;2023-05-07T02:09:35;12.17;;;9.20;;
13720;SDS011;6932;51.438;5.470;2023-05-07T02:12:00;13.27;;;9.57;;
13720;SDS011;6932;51.438;5.470;2023-05-07T02:14:26;13.47;;;9.37;;
13720;SDS011;6932;51.438;5.470;2023-05-07T02:16:52;12.17;;;9.77;;
13720;SDS011;6932;51.438;5.470;2023-05-07T02:19:17;12.23;;;9.97;;
13720;SDS011;6932;51.438;5.470;2023-05-07T02:21:46;14.13;;;10.10;;
13720;SDS011;6932;51.438;5.470;2023-05-07T02:24:12;14.10;;;10.47;;
13720;SDS011;6932;51.438;5.470;2023-05-07T02:26:39;14.30;;;10.50;;
13720;SDS011;6932;51.438;5.470;2023-05-07T02:29:06;13.40;;;10.30;;
13720;SDS011;6932;51.438;5.470;2023-05-07T02:31:32;14.33;;;11.17;;
13720;SDS011;6932;51.438;5.470;2023-05-07T02:33:59;13.43;;;10.60;;
13720;SDS011;6932;51.438;5.470;2023-05-07T02:40:00;13.60;;;10.47;;
13720;SDS011;6932;51.438;5.470;2023-05-07T02:42:26;13.53;;;10.90;;
13720;SDS011;6932;51.438;5.470;2023-05-07T02:44:52;12.93;;;10.70;;
13720;SDS011;6932;51.438;5.470;2023-05-07T02:47:17;14.40;;;10.40;;
13720;SDS011;6932;51.438;5.470;2023-05-07T02:49:43;13.17;;;11.00;;
13720;SDS011;6932;51.438;5.470;2023-05-07T02:52:09;12.40;;;10.20;;
13720;SDS011;6932;51.438;5.470;2023-05-07T03:02:06;13.93;;;11.00;;
13720;SDS011;6932;51.438;5.470;2023-05-07T03:04:31;14.07;;;11.57;;
13720;SDS011;6932;51.438;5.470;2023-05-07T03:06:57;14.40;;;11.47;;
13720;SDS011;6932;51.438;5.470;2023-05-07T03:09:23;14.30;;;11.57;;
13720;SDS011;6932;51.438;5.470;2023-05-07T03:11:49;12.90;;;10.97;;
13720;SDS011;6932;51.438;5.470;2023-05-07T03:14:14;13.97;;;11.60;;
13720;SDS011;6932;51.438;5.470;2023-05-07T03:16:40;15.70;;;11.70;;
13720;SDS011;6932;51.438;5.470;2023-05-07T03:19:06;14.73;;;11.63;;
13720;SDS011;6932;51.438;5.470;2023-05-07T03:21:32;14.13;;;11.30;;
13720;SDS011;6932;51.438;5.470;2023-05-07T03:27:48;14.00;;;11.57;;
13720;SDS011;6932;51.438;5.470;2023-05-07T03:30:14;14.33;;;11.77;;
13720;SDS011;6932;51.438;5.470;2023-05-07T03:32:40;14.37;;;11.37;;
13720;SDS011;6932;51.438;5.470;2023-05-07T03:35:06;13.43;;;11.20;;
13720;SDS011;6932;51.438;5.470;2023-05-07T03:37:32;14.60;;;12.03;;
13720;SDS011;6932;51.438;5.470;2023-05-07T03:39:58;15.27;;;11.77;;
13720;SDS011;6932;51.438;5.470;2023-05-07T03:42:24;14.30;;;11.10;;
13720;SDS011;6932;51.438;5.470;2023-05-07T03:44:49;14.43;;;11.97;;
13720;SDS011;6932;51.438;5.470;2023-05-07T03:58:27;14.63;;;11.97;;
13720;SDS011;6932;51.438;5.470;2023-05-07T04:00:53;14.17;;;11.57;;
13720;SDS011;6932;51.438;5.470;2023-05-07T04:03:18;15.17;;;11.77;;
13720;SDS011;6932;51.438;5.470;2023-05-07T04:05:44;14.90;;;12.10;;
13720;SDS011;6932;51.438;5.470;2023-05-07T04:08:10;13.93;;;11.83;;
13720;SDS011;6932;51.438;5.470;2023-05-07T04:10:36;14.23;;;11.70;;
13720;SDS011;6932;51.438;5.470;2023-05-07T04:13:01;14.27;;;11.53;;
13720;SDS011;6932;51.438;5.470;2023-05-07T04:15:27;13.73;;;11.60;;
13720;SDS011;6932;51.438;5.470;2023-05-07T04:25:24;14.37;;;11.90;;
13720;SDS011;6932;51.438;5.470;2023-05-07T04:27:51;15.53;;;12.37;;
13720;SDS011;6932;51.438;5.470;2023-05-07T04:30:18;16.27;;;12.10;;
13720;SDS011;6932;51.438;5.470;2023-05-07T04:32:44;14.90;;;11.93;;
13720;SDS011;6932;51.438;5.470;2023-05-07T04:35:09;14.27;;;11.87;;
13720;SDS011;6932;51.438;5.470;2023-05-07T04:37:35;14.50;;;11.90;;
13720;SDS011;6932;51.438;5.470;2023-05-07T04:40:01;14.13;;;11.23;;
13720;SDS011;6932;51.438;5.470;2023-05-07T04:42:27;15.37;;;11.73;;
13720;SDS011;6932;51.438;5.470;2023-05-07T04:52:15;14.73;;;12.17;;
13720;SDS011;6932;51.438;5.470;2023-05-07T04:54:41;14.27;;;11.87;;
13720;SDS011;6932;51.438;5.470;2023-05-07T04:57:07;14.13;;;11.70;;
13720;SDS011;6932;51.438;5.470;2023-05-07T04:59:33;14.67;;;11.67;;
13720;SDS011;6932;51.438;5.470;2023-05-07T05:01:58;14.93;;;11.90;;
13720;SDS011;6932;51.438;5.470;2023-05-07T05:04:24;14.20;;;11.47;;
13720;SDS011;6932;51.438;5.470;2023-05-07T05:06:50;16.20;;;12.20;;
13720;SDS011;6932;51.438;5.470;2023-05-07T05:09:16;14.87;;;11.53;;
13720;SDS011;6932;51.438;5.470;2023-05-07T05:11:42;14.20;;;11.10;;
13720;SDS011;6932;51.438;5.470;2023-05-07T05:14:08;14.77;;;11.57;;
13720;SDS011;6932;51.438;5.470;2023-05-07T05:16:33;15.30;;;11.57;;
13720;SDS011;6932;51.438;5.470;2023-05-07T05:18:59;14.30;;;11.70;;
13720;SDS011;6932;51.438;5.470;2023-05-07T05:21:27;14.23;;;11.53;;
13720;SDS011;6932;51.438;5.470;2023-05-07T05:23:53;14.70;;;11.27;;
13720;SDS011;6932;51.438;5.470;2023-05-07T05:26:19;13.77;;;11.10;;
13720;SDS011;6932;51.438;5.470;2023-05-07T05:28:46;13.97;;;11.43;;
13720;SDS011;6932;51.438;5.470;2023-05-07T05:34:15;13.57;;;11.23;;
13720;SDS011;6932;51.438;5.470;2023-05-07T05:36:42;13.63;;;10.50;;
13720;SDS011;6932;51.438;5.470;2023-05-07T05:39:08;13.57;;;11.23;;
13720;SDS011;6932;51.438;5.470;2023-05-07T05:41:34;13.10;;;10.67;;
13720;SDS011;6932;51.438;5.470;2023-05-07T05:44:00;14.40;;;11.33;;
13720;SDS011;6932;51.438;5.470;2023-05-07T05:50:15;14.07;;;10.97;;
13720;SDS011;6932;51.438;5.470;2023-05-07T05:52:41;15.00;;;10.80;;
13720;SDS011;6932;51.438;5.470;2023-05-07T05:55:07;13.33;;;10.93;;
13720;SDS011;6932;51.438;5.470;2023-05-07T05:57:33;14.17;;;11.23;;
13720;SDS011;6932;51.438;5.470;2023-05-07T06:00:00;13.37;;;11.10;;
13720;SDS011;6932;51.438;5.470;2023-05-07T06:02:27;12.73;;;10.20;;
13720;SDS011;6932;51.438;5.470;2023-05-07T06:04:53;13.07;;;10.47;;
13720;SDS011;6932;51.438;5.470;2023-05-07T06:07:19;13.20;;;10.83;;
13720;SDS011;6932;51.438;5.470;2023-05-07T06:09:45;13.13;;;10.53;;
13720;SDS011;6932;51.438;5.470;2023-05-07T06:12:11;14.43;;;10.43;;
13720;SDS011;6932;51.438;5.470;2023-05-07T06:14:37;12.27;;;9.83;;
13720;SDS011;6932;51.438;5.470;2023-05-07T06:17:03;14.40;;;10.40;;
13720;SDS011;6932;51.438;5.470;2023-05-07T06:19:28;12.77;;;10.33;;
13720;SDS011;6932;51.438;5.470;2023-05-07T06:21:54;13.70;;;10.50;;
13720;SDS011;6932;51.438;5.470;2023-05-07T06:24:23;13.67;;;10.27;;
13720;SDS011;6932;51.438;5.470;2023-05-07T06:26:49;13.10;;;10.30;;
13720;SDS011;6932;51.438;5.470;2023-05-07T06:29:15;12.63;;;10.30;;
13720;SDS011;6932;51.438;5.470;2023-05-07T06:31:41;13.13;;;10.00;;
13720;SDS011;6932;51.438;5.470;2023-05-07T06:34:07;13.33;;;10.23;;
13720;SDS011;6932;51.438;5.470;2023-05-07T06:36:32;13.50;;;10.53;;
13720;SDS011;6932;51.438;5.470;2023-05-07T06:38:59;12.33;;;9.83;;
13720;SDS011;6932;51.438;5.470;2023-05-07T06:41:24;13.10;;;9.97;;
13720;SDS011;6932;51.438;5.470;2023-05-07T06:43:50;13.00;;;10.07;;
13720;SDS011;6932;51.438;5.470;2023-05-07T06:46:16;12.93;;;10.33;;
13720;SDS011;6932;51.438;5.470;2023-05-07T06:48:42;12.57;;;9.93;;
13720;SDS011;6932;51.438;5.470;2023-05-07T06:51:08;12.43;;;9.57;;
13720;SDS011;6932;51.438;5.470;2023-05-07T06:53:34;12.97;;;9.57;;
13720;SDS011;6932;51.438;5.470;2023-05-07T06:56:00;13.03;;;9.90;;
13720;SDS011;6932;51.438;5.470;2023-05-07T06:58:26;12.50;;;9.50;;
13720;SDS011;6932;51.438;5.470;2023-05-07T07:00:52;12.10;;;9.57;;
13720;SDS011;6932;51.438;5.470;2023-05-07T07:03:17;12.77;;;10.13;;
13720;SDS011;6932;51.438;5.470;2023-05-07T07:05:43;12.13;;;9.40;;
13720;SDS011;6932;51.438;5.470;2023-05-07T07:08:09;14.40;;;9.90;;
13720;SDS011;6932;51.438;5.470;2023-05-07T07:10:35;12.60;;;9.90;;
13720;SDS011;6932;51.438;5.470;2023-05-07T07:13:01;13.63;;;10.10;;
13720;SDS011;6932;51.438;5.470;2023-05-07T07:15:27;12.30;;;10.20;;
13720;SDS011;6932;51.438;5.470;2023-05-07T07:17:52;10.97;;;8.73;;
13720;SDS011;6932;51.438;5.470;2023-05-07T07:20:18;12.73;;;9.20;;
13720;SDS011;6932;51.438;5.470;2023-05-07T07:22:44;14.30;;;9.90;;
13720;SDS011;6932;51.438;5.470;2023-05-07T07:25:10;12.03;;;8.93;;
13720;SDS011;6932;51.438;5.470;2023-05-07T07:27:36;12.50;;;9.03;;
13720;SDS011;6932;51.438;5.470;2023-05-07T07:30:02;12.60;;;9.03;;
13720;SDS011;6932;51.438;5.470;2023-05-07T07:32:29;12.77;;;9.57;;
13720;SDS011;6932;51.438;5.470;2023-05-07T07:34:57;12.07;;;9.30;;
13720;SDS011;6932;51.438;5.470;2023-05-07T07:37:22;12.90;;;8.83;;
13720;SDS011;6932;51.438;5.470;2023-05-07T07:39:50;11.47;;;8.97;;
13720;SDS011;6932;51.438;5.470;2023-05-07T07:42:16;13.37;;;9.40;;
13720;SDS011;6932;51.438;5.470;2023-05-07T07:44:41;12.17;;;9.37;;
13720;SDS011;6932;51.438;5.470;2023-05-07T07:47:07;12.10;;;9.13;;
13720;SDS011;6932;51.438;5.470;2023-05-07T07:49:33;12.00;;;9.53;;
13720;SDS011;6932;51.438;5.470;2023-05-07T07:51:59;13.87;;;9.77;;
13720;SDS011;6932;51.438;5.470;2023-05-07T07:54:24;12.67;;;10.10;;
13720;SDS011;6932;51.438;5.470;2023-05-07T07:56:50;12.57;;;9.77;;
13720;SDS011;6932;51.438;5.470;2023-05-07T07:59:16;13.93;;;9.07;;
13720;SDS011;6932;51.438;5.470;2023-05-07T08:01:44;11.23;;;8.83;;
13720;SDS011;6932;51.438;5.470;2023-05-07T08:04:10;10.97;;;8.50;;
13720;SDS011;6932;51.438;5.470;2023-05-07T08:06:36;12.27;;;9.00;;
13720;SDS011;6932;51.438;5.470;2023-05-07T08:09:01;11.33;;;8.77;;
13720;SDS011;6932;51.438;5.470;2023-05-07T08:11:27;10.93;;;8.87;;
13720;SDS011;6932;51.438;5.470;2023-05-07T08:13:54;11.97;;;9.27;;
13720;SDS011;6932;51.438;5.470;2023-05-07T08:16:20;12.73;;;9.60;;
13720;SDS011;6932;51.438;5.470;2023-05-07T08:18:46;12.43;;;9.03;;
13720;SDS011;6932;51.438;5.470;2023-05-07T08:21:11;11.80;;;9.20;;
13720;SDS011;6932;51.438;5.470;2023-05-07T08:23:37;11.63;;;9.03;;
13720;SDS011;6932;51.438;5.470;2023-05-07T08:26:03;11.97;;;9.37;;
13720;SDS011;6932;51.438;5.470;2023-05-07T08:28:29;12.43;;;9.97;;
13720;SDS011;6932;51.438;5.470;2023-05-07T08:30:55;13.40;;;9.17;;
13720;SDS011;6932;51.438;5.470;2023-05-07T08:33:21;12.40;;;9.57;;
13720;SDS011;6932;51.438;5.470;2023-05-07T08:35:47;12.07;;;9.63;;
13720;SDS011;6932;51.438;5.470;2023-05-07T08:38:13;12.00;;;9.77;;
13720;SDS011;6932;51.438;5.470;2023-05-07T08:40:39;13.20;;;9.97;;
13720;SDS011;6932;51.438;5.470;2023-05-07T08:45:54;10.53;;;8.93;;
13720;SDS011;6932;51.438;5.470;2023-05-07T08:48:25;11.87;;;9.40;;
13720;SDS011;6932;51.438;5.470;2023-05-07T08:50:55;11.00;;;8.80;;
13720;SDS011;6932;51.438;5.470;2023-05-07T08:53:20;11.47;;;9.63;;
13720;SDS011;6932;51.438;5.470;2023-05-07T08:55:46;11.73;;;9.27;;
13720;SDS011;6932;51.438;5.470;2023-05-07T08:58:13;11.43;;;8.87;;
13720;SDS011;6932;51.438;5.470;2023-05-07T09:00:39;12.30;;;9.27;;
13720;SDS011;6932;51.438;5.470;2023-05-07T09:06:29;11.97;;;9.57;;
13720;SDS011;6932;51.438;5.470;2023-05-07T09:08:55;11.67;;;9.00;;
13720;SDS011;6932;51.438;5.470;2023-05-07T09:11:21;12.60;;;9.47;;
13720;SDS011;6932;51.438;5.470;2023-05-07T09:13:48;11.30;;;8.70;;
13720;SDS011;6932;51.438;5.470;2023-05-07T09:16:20;11.17;;;8.47;;
13720;SDS011;6932;51.438;5.470;2023-05-07T09:18:48;11.77;;;8.50;;
13720;SDS011;6932;51.438;5.470;2023-05-07T09:21:17;12.73;;;8.50;;
13720;SDS011;6932;51.438;5.470;2023-05-07T09:23:44;10.57;;;7.83;;
13720;SDS011;6932;51.438;5.470;2023-05-07T09:26:09;10.77;;;8.50;;
13720;SDS011;6932;51.438;5.470;2023-05-07T09:28:40;11.10;;;8.10;;
13720;SDS011;6932;51.438;5.470;2023-05-07T09:31:07;10.80;;;8.20;;
13720;SDS011;6932;51.438;5.470;2023-05-07T09:33:34;12.00;;;8.23;;
13720;SDS011;6932;51.438;5.470;2023-05-07T09:36:03;10.73;;;7.97;;
13720;SDS011;6932;51.438;5.470;2023-05-07T09:38:34;9.93;;;7.63;;
13720;SDS011;6932;51.438;5.470;2023-05-07T09:41:05;10.73;;;7.67;;
13720;SDS011;6932;51.438;5.470;2023-05-07T09:43:37;9.87;;;7.63;;
13720;SDS011;6932;51.438;5.470;2023-05-07T09:46:14;11.13;;;8.30;;
13720;SDS011;6932;51.438;5.470;2023-05-07T09:48:42;11.43;;;8.13;;
13720;SDS011;6932;51.438;5.470;2023-05-07T09:51:25;10.00;;;8.17;;
13720;SDS011;6932;51.438;5.470;2023-05-07T09:53:56;10.83;;;7.57;;
13720;SDS011;6932;51.438;5.470;2023-05-07T09:56:25;10.00;;;7.70;;
13720;SDS011;6932;51.438;5.470;2023-05-07T09:58:52;10.77;;;8.03;;
13720;SDS011;6932;51.438;5.470;2023-05-07T10:01:22;9.90;;;7.67;;
13720;SDS011;6932;51.438;5.470;2023-05-07T10:03:50;10.33;;;7.80;;
13720;SDS011;6932;51.438;5.470;2023-05-07T10:06:19;9.60;;;7.43;;
13720;SDS011;6932;51.438;5.470;2023-05-07T10:08:45;11.20;;;7.43;;
13720;SDS011;6932;51.438;5.470;2023-05-07T10:11:13;10.27;;;7.70;;
13720;SDS011;6932;51.438;5.470;2023-05-07T10:13:41;11.80;;;8.10;;
13720;SDS011;6932;51.438;5.470;2023-05-07T10:16:08;9.60;;;7.90;;
13720;SDS011;6932;51.438;5.470;2023-05-07T10:18:34;11.70;;;7.83;;
13720;SDS011;6932;51.438;5.470;2023-05-07T10:21:07;9.43;;;7.17;;
13720;SDS011;6932;51.438;5.470;2023-05-07T10:23:50;9.30;;;6.97;;
13720;SDS011;6932;51.438;5.470;2023-05-07T10:26:23;10.30;;;7.23;;
13720;SDS011;6932;51.438;5.470;2023-05-07T10:28:55;9.00;;;6.90;;
13720;SDS011;6932;51.438;5.470;2023-05-07T10:34:36;9.27;;;6.80;;
13720;SDS011;6932;51.438;5.470;2023-05-07T10:37:07;10.50;;;7.20;;
13720;SDS011;6932;51.438;5.470;2023-05-07T10:39:35;8.87;;;6.90;;
13720;SDS011;6932;51.438;5.470;2023-05-07T10:42:11;11.17;;;6.97;;
13720;SDS011;6932;51.438;5.470;2023-05-07T10:44:39;9.20;;;7.27;;
13720;SDS011;6932;51.438;5.470;2023-05-07T10:47:12;9.10;;;7.03;;
13720;SDS011;6932;51.438;5.470;2023-05-07T10:52:18;9.63;;;7.07;;
13720;SDS011;6932;51.438;5.470;2023-05-07T10:54:46;9.07;;;7.37;;
13720;SDS011;6932;51.438;5.470;2023-05-07T10:59:57;11.13;;;7.43;;
13720;SDS011;6932;51.438;5.470;2023-05-07T11:02:23;9.10;;;6.80;;
13720;SDS011;6932;51.438;5.470;2023-05-07T11:05:28;10.23;;;7.23;;
13720;SDS011;6932;51.438;5.470;2023-05-07T11:07:57;9.77;;;7.50;;
13720;SDS011;6932;51.438;5.470;2023-05-07T11:16:18;10.30;;;8.00;;
13720;SDS011;6932;51.438;5.470;2023-05-07T11:18:50;9.60;;;7.23;;
13720;SDS011;6932;51.438;5.470;2023-05-07T11:25:04;10.70;;;7.33;;
13720;SDS011;6932;51.438;5.470;2023-05-07T11:27:32;9.70;;;7.13;;
13720;SDS011;6932;51.438;5.470;2023-05-07T11:29:58;11.37;;;7.10;;
13720;SDS011;6932;51.438;5.470;2023-05-07T11:32:26;9.37;;;6.70;;
13720;SDS011;6932;51.438;5.470;2023-05-07T11:34:54;10.53;;;7.17;;
13720;SDS011;6932;51.438;5.470;2023-05-07T11:37:23;9.07;;;7.03;;
13720;SDS011;6932;51.438;5.470;2023-05-07T11:39:50;9.63;;;7.00;;
13720;SDS011;6932;51.438;5.470;2023-05-07T11:42:29;9.67;;;7.30;;
13720;SDS011;6932;51.438;5.470;2023-05-07T11:45:02;10.87;;;7.23;;
13720;SDS011;6932;51.438;5.470;2023-05-07T11:47:32;10.03;;;7.30;;
13720;SDS011;6932;51.438;5.470;2023-05-07T11:50:05;10.60;;;7.10;;
13720;SDS011;6932;51.438;5.470;2023-05-07T11:52:33;9.97;;;6.63;;
13720;SDS011;6932;51.438;5.470;2023-05-07T11:54:59;7.50;;;6.27;;
13720;SDS011;6932;51.438;5.470;2023-05-07T11:57:27;8.40;;;6.37;;
13720;SDS011;6932;51.438;5.470;2023-05-07T11:59:56;7.27;;;5.63;;
13720;SDS011;6932;51.438;5.470;2023-05-07T12:06:08;9.30;;;6.23;;
13720;SDS011;6932;51.438;5.470;2023-05-07T12:08:37;8.27;;;5.87;;
13720;SDS011;6932;51.438;5.470;2023-05-07T12:11:22;7.93;;;6.10;;
13720;SDS011;6932;51.438;5.470;2023-05-07T12:13:50;7.83;;;5.70;;
13720;SDS011;6932;51.438;5.470;2023-05-07T12:16:17;7.67;;;6.10;;
13720;SDS011;6932;51.438;5.470;2023-05-07T12:18:44;7.93;;;5.80;;
13720;SDS011;6932;51.438;5.470;2023-05-07T12:21:11;8.60;;;5.87;;
13720;SDS011;6932;51.438;5.470;2023-05-07T12:23:37;8.00;;;5.77;;
13720;SDS011;6932;51.438;5.470;2023-05-07T12:26:04;7.90;;;5.90;;
13720;SDS011;6932;51.438;5.470;2023-05-07T12:28:30;7.43;;;5.13;;
13720;SDS011;6932;51.438;5.470;2023-05-07T12:31:02;6.10;;;3.73;;
13720;SDS011;6932;51.438;5.470;2023-05-07T12:33:28;5.20;;;3.37;;
13720;SDS011;6932;51.438;5.470;2023-05-07T12:35:55;6.17;;;2.70;;
13720;SDS011;6932;51.438;5.470;2023-05-07T12:38:21;2.77;;;1.67;;
13720;SDS011;6932;51.438;5.470;2023-05-07T12:40:48;3.77;;;2.13;;
13720;SDS011;6932;51.438;5.470;2023-05-07T12:43:23;3.53;;;2.27;;
13720;SDS011;6932;51.438;5.470;2023-05-07T12:45:55;2.70;;;1.97;;
13720;SDS011;6932;51.438;5.470;2023-05-07T12:48:25;3.93;;;1.90;;
13720;SDS011;6932;51.438;5.470;2023-05-07T12:50:54;3.05;;;1.38;;
13720;SDS011;6932;51.438;5.470;2023-05-07T12:53:25;2.30;;;1.50;;
13720;SDS011;6932;51.438;5.470;2023-05-07T12:55:54;3.07;;;1.40;;
13720;SDS011;6932;51.438;5.470;2023-05-07T13:00:50;3.27;;;1.60;;
13720;SDS011;6932;51.438;5.470;2023-05-07T13:03:20;2.70;;;1.67;;
13720;SDS011;6932;51.438;5.470;2023-05-07T13:05:54;3.57;;;1.47;;
13720;SDS011;6932;51.438;5.470;2023-05-07T13:08:23;2.43;;;1.77;;
13720;SDS011;6932;51.438;5.470;2023-05-07T13:11:00;3.73;;;1.87;;
13720;SDS011;6932;51.438;5.470;2023-05-07T13:13:32;2.40;;;1.70;;
13720;SDS011;6932;51.438;5.470;2023-05-07T13:16:01;3.77;;;1.70;;
13720;SDS011;6932;51.438;5.470;2023-05-07T13:18:29;5.10;;;1.90;;
13720;SDS011;6932;51.438;5.470;2023-05-07T13:20:56;1.60;;;1.20;;
13720;SDS011;6932;51.438;5.470;2023-05-07T13:23:22;3.70;;;1.63;;
13720;SDS011;6932;51.438;5.470;2023-05-07T13:25:48;3.37;;;1.70;;
13720;SDS011;6932;51.438;5.470;2023-05-07T13:28:14;2.80;;;1.80;;
13720;SDS011;6932;51.438;5.470;2023-05-07T13:30:40;4.00;;;1.70;;
13720;SDS011;6932;51.438;5.470;2023-05-07T13:33:06;3.03;;;1.80;;
13720;SDS011;6932;51.438;5.470;2023-05-07T13:35:32;3.87;;;1.70;;
13720;SDS011;6932;51.438;5.470;2023-05-07T13:37:59;2.13;;;1.40;;
13720;SDS011;6932;51.438;5.470;2023-05-07T13:40:24;1.30;;;1.20;;
13720;SDS011;6932;51.438;5.470;2023-05-07T13:42:50;2.43;;;1.60;;
13720;SDS011;6932;51.438;5.470;2023-05-07T13:45:17;4.33;;;2.10;;
13720;SDS011;6932;51.438;5.470;2023-05-07T13:47:43;2.63;;;1.77;;
13720;SDS011;6932;51.438;5.470;2023-05-07T13:50:10;2.60;;;1.57;;
13720;SDS011;6932;51.438;5.470;2023-05-07T13:52:38;3.30;;;1.40;;
13720;SDS011;6932;51.438;5.470;2023-05-07T13:58:49;1.50;;;1.40;;
13720;SDS011;6932;51.438;5.470;2023-05-07T14:01:14;1.90;;;1.60;;
13720;SDS011;6932;51.438;5.470;2023-05-07T14:03:40;2.83;;;1.67;;
13720;SDS011;6932;51.438;5.470;2023-05-07T14:06:06;1.80;;;1.60;;
13720;SDS011;6932;51.438;5.470;2023-05-07T14:08:31;1.83;;;1.50;;
13720;SDS011;6932;51.438;5.470;2023-05-07T14:10:57;1.87;;;1.50;;
13720;SDS011;6932;51.438;5.470;2023-05-07T14:13:23;2.97;;;1.93;;
13720;SDS011;6932;51.438;5.470;2023-05-07T14:15:49;3.93;;;2.10;;
13720;SDS011;6932;51.438;5.470;2023-05-07T14:18:15;2.77;;;2.10;;
13720;SDS011;6932;51.438;5.470;2023-05-07T14:24:34;3.83;;;2.63;;
13720;SDS011;6932;51.438;5.470;2023-05-07T14:27:01;6.03;;;3.30;;
13720;SDS011;6932;51.438;5.470;2023-05-07T14:29:27;4.93;;;3.00;;
13720;SDS011;6932;51.438;5.470;2023-05-07T14:31:53;4.13;;;2.83;;
13720;SDS011;6932;51.438;5.470;2023-05-07T14:34:19;4.23;;;2.77;;
13720;SDS011;6932;51.438;5.470;2023-05-07T14:52:47;4.87;;;2.90;;
13720;SDS011;6932;51.438;5.470;2023-05-07T14:55:13;3.63;;;2.50;;
13720;SDS011;6932;51.438;5.470;2023-05-07T14:57:39;2.93;;;2.20;;
13720;SDS011;6932;51.438;5.470;2023-05-07T15:00:05;2.80;;;2.10;;
13720;SDS011;6932;51.438;5.470;2023-05-07T15:02:32;2.83;;;1.93;;
13720;SDS011;6932;51.438;5.470;2023-05-07T15:04:58;3.80;;;2.20;;
13720;SDS011;6932;51.438;5.470;2023-05-07T15:07:24;5.53;;;2.17;;
13720;SDS011;6932;51.438;5.470;2023-05-07T15:09:50;3.37;;;2.50;;
13720;SDS011;6932;51.438;5.470;2023-05-07T15:15:16;4.97;;;2.80;;
13720;SDS011;6932;51.438;5.470;2023-05-07T15:17:42;4.30;;;3.10;;
13720;SDS011;6932;51.438;5.470;2023-05-07T15:20:07;5.13;;;3.00;;
13720;SDS011;6932;51.438;5.470;2023-05-07T15:22:33;4.10;;;3.00;;
13720;SDS011;6932;51.438;5.470;2023-05-07T15:25:02;5.87;;;3.50;;
13720;SDS011;6932;51.438;5.470;2023-05-07T15:27:29;3.87;;;3.30;;
13720;SDS011;6932;51.438;5.470;2023-05-07T15:29:56;4.83;;;3.07;;
13720;SDS011;6932;51.438;5.470;2023-05-07T15:32:22;4.10;;;3.20;;
13720;SDS011;6932;51.438;5.470;2023-05-07T15:34:48;3.67;;;3.20;;
13720;SDS011;6932;51.438;5.470;2023-05-07T15:37:13;5.00;;;3.40;;
13720;SDS011;6932;51.438;5.470;2023-05-07T15:39:39;5.10;;;3.43;;
13720;SDS011;6932;51.438;5.470;2023-05-07T15:42:05;4.37;;;3.40;;
13720;SDS011;6932;51.438;5.470;2023-05-07T15:44:31;5.80;;;3.80;;
13720;SDS011;6932;51.438;5.470;2023-05-07T15:46:58;5.53;;;3.73;;
13720;SDS011;6932;51.438;5.470;2023-05-07T15:49:24;5.90;;;3.77;;
13720;SDS011;6932;51.438;5.470;2023-05-07T15:51:50;5.17;;;3.77;;
13720;SDS011;6932;51.438;5.470;2023-05-07T15:54:18;5.57;;;4.07;;
13720;SDS011;6932;51.438;5.470;2023-05-07T15:56:45;6.23;;;4.37;;
13720;SDS011;6932;51.438;5.470;2023-05-07T15:59:11;6.43;;;5.00;;
13720;SDS011;6932;51.438;5.470;2023-05-07T16:01:37;6.67;;;4.70;;
13720;SDS011;6932;51.438;5.470;2023-05-07T16:04:06;6.47;;;4.63;;
13720;SDS011;6932;51.438;5.470;2023-05-07T16:06:32;7.53;;;4.80;;
13720;SDS011;6932;51.438;5.470;2023-05-07T16:09:12;5.73;;;4.20;;
13720;SDS011;6932;51.438;5.470;2023-05-07T16:11:38;7.03;;;4.97;;
13720;SDS011;6932;51.438;5.470;2023-05-07T16:14:04;7.10;;;4.90;;
13720;SDS011;6932;51.438;5.470;2023-05-07T16:16:33;6.60;;;5.17;;
13720;SDS011;6932;51.438;5.470;2023-05-07T16:19:00;6.63;;;4.97;;
13720;SDS011;6932;51.438;5.470;2023-05-07T16:21:26;6.57;;;5.10;;
13720;SDS011;6932;51.438;5.470;2023-05-07T16:23:51;6.27;;;4.70;;
13720;SDS011;6932;51.438;5.470;2023-05-07T16:26:17;5.93;;;4.63;;
13720;SDS011;6932;51.438;5.470;2023-05-07T16:32:05;7.70;;;5.40;;
13720;SDS011;6932;51.438;5.470;2023-05-07T16:34:31;7.50;;;5.07;;
13720;SDS011;6932;51.438;5.470;2023-05-07T16:36:57;6.37;;;5.10;;
13720;SDS011;6932;51.438;5.470;2023-05-07T16:39:22;7.43;;;5.33;;
13720;SDS011;6932;51.438;5.470;2023-05-07T16:41:48;7.17;;;5.10;;
13720;SDS011;6932;51.438;5.470;2023-05-07T16:44:15;7.67;;;5.40;;
13720;SDS011;6932;51.438;5.470;2023-05-07T16:46:41;8.77;;;5.70;;